createdAt,value
2019-02-24T00:01:53.038Z,93331.83
2019-02-24T00:04:41.649Z,93331.08
2019-02-24T00:07:29.826Z,93326.30
2019-02-24T00:10:17.751Z,93326.98
2019-02-24T00:13:05.921Z,93325.97
2019-02-24T00:15:53.896Z,93327.11
2019-02-24T00:18:42.435Z,93328.09
2019-02-24T00:21:30.659Z,93330.62
2019-02-24T00:24:18.657Z,93334.78
2019-02-24T00:27:07.928Z,93331.63
2019-02-24T00:29:56.224Z,93333.55
2019-02-24T00:32:43.894Z,93334.40
2019-02-24T00:35:32.258Z,93329.88
2019-02-24T00:38:20.865Z,93326.22
2019-02-24T00:41:09.423Z,93325.02
2019-02-24T00:43:57.590Z,93322.97
2019-02-24T00:46:45.746Z,93327.20
2019-02-24T00:49:36.080Z,93320.52
2019-02-24T00:52:23.247Z,93318.19
2019-02-24T00:55:12.187Z,93303.03
2019-02-24T00:58:00.427Z,93316.28
2019-02-24T01:00:49.030Z,93306.85
2019-02-24T01:03:36.817Z,93316.51
2019-02-24T01:06:25.369Z,93309.78
2019-02-24T01:09:13.587Z,93302.00
2019-02-24T01:12:01.707Z,93299.69
2019-02-24T01:14:49.456Z,93300.17
2019-02-24T01:17:37.775Z,93297.51
2019-02-24T01:20:26.348Z,93288.78
2019-02-24T01:23:14.689Z,93296.44
2019-02-24T01:26:02.735Z,93290.90
2019-02-24T01:28:50.803Z,93286.22
2019-02-24T01:31:39.338Z,93292.11
2019-02-24T01:34:27.023Z,93290.50
2019-02-24T01:37:14.818Z,93282.56
2019-02-24T01:40:03.198Z,93284.02
2019-02-24T01:42:51.926Z,93293.77
2019-02-24T01:45:39.916Z,93290.84
2019-02-24T01:48:28.056Z,93289.31
2019-02-24T01:51:22.443Z,93290.27
2019-02-24T01:54:11.655Z,93286.41
2019-02-24T01:56:59.304Z,93288.92
2019-02-24T01:59:47.447Z,93294.05
2019-02-24T02:02:35.478Z,93293.89
2019-02-24T02:05:23.863Z,93302.10
2019-02-24T02:08:12.333Z,93300.53
2019-02-24T02:11:00.860Z,93305.56
2019-02-24T02:13:50.012Z,93297.72
2019-02-24T02:16:38.111Z,93293.96
2019-02-24T02:19:26.191Z,93299.95
2019-02-24T02:22:14.711Z,93288.50
2019-02-24T02:25:02.712Z,93288.46
2019-02-24T02:27:51.464Z,93282.67
2019-02-24T02:30:39.971Z,93283.94
2019-02-24T02:33:27.752Z,93282.09
2019-02-24T02:36:15.824Z,93281.73
2019-02-24T02:39:04.613Z,93281.01
2019-02-24T02:41:52.677Z,93275.52
2019-02-24T02:44:44.227Z,93286.66
2019-02-24T02:47:32.417Z,93283.20
2019-02-24T02:50:20.506Z,93292.30
2019-02-24T02:53:08.691Z,93294.14
2019-02-24T02:55:57.048Z,93290.86
2019-02-24T02:58:54.008Z,93297.39
2019-02-24T03:01:34.516Z,93288.64
2019-02-24T03:04:22.892Z,93291.82
2019-02-24T03:07:30.358Z,93293.55
2019-02-24T03:10:18.199Z,93290.86
2019-02-24T03:13:06.599Z,93295.81
2019-02-24T03:15:54.975Z,93296.76
2019-02-24T03:18:49.210Z,93296.88
2019-02-24T03:21:37.248Z,93305.01
2019-02-24T03:24:25.601Z,93309.18
2019-02-24T03:27:13.594Z,93298.41
2019-02-24T03:30:01.339Z,93300.45
2019-02-24T03:32:52.294Z,93297.39
2019-02-24T03:35:40.514Z,93299.15
2019-02-24T03:38:31.841Z,93296.63
2019-02-24T03:41:20.308Z,93305.28
2019-02-24T03:44:09.850Z,93296.28
2019-02-24T03:46:57.943Z,93293.05
2019-02-24T03:49:45.618Z,93293.30
2019-02-24T03:52:34.046Z,93287.49
2019-02-24T03:55:22.465Z,93288.34
2019-02-24T03:58:13.701Z,93290.52
2019-02-24T04:01:02.109Z,93286.67
2019-02-24T04:03:51.879Z,93278.42
2019-02-24T04:06:40.752Z,93275.08
2019-02-24T04:09:28.700Z,93272.85
2019-02-24T04:12:19.280Z,93269.47
2019-02-24T04:15:07.899Z,93275.42
2019-02-24T04:17:55.806Z,93273.20
2019-02-24T04:20:43.660Z,93273.09
2019-02-24T04:23:31.825Z,93276.76
2019-02-24T04:26:19.939Z,93276.16
2019-02-24T04:29:07.598Z,93284.00
2019-02-24T04:31:55.640Z,93274.45
2019-02-24T04:34:43.922Z,93281.41
2019-02-24T04:37:32.275Z,93273.15
2019-02-24T04:40:20.389Z,93276.39
2019-02-24T04:43:08.337Z,93275.46
2019-02-24T04:45:57.669Z,93280.84
2019-02-24T04:48:46.947Z,93284.53
2019-02-24T04:51:35.252Z,93280.97
2019-02-24T04:54:23.867Z,93281.44
2019-02-24T04:57:12.101Z,93277.36
2019-02-24T05:00:01.145Z,93280.67
2019-02-24T05:02:49.416Z,93278.60
2019-02-24T05:05:37.829Z,93275.98
2019-02-24T05:08:26.352Z,93271.81
2019-02-24T05:11:14.834Z,93288.19
2019-02-24T05:14:02.918Z,93290.14
2019-02-24T05:16:51.538Z,93293.35
2019-02-24T05:19:39.735Z,93289.69
2019-02-24T05:22:27.577Z,93295.35
2019-02-24T05:25:15.767Z,93289.34
2019-02-24T05:28:03.619Z,93293.41
2019-02-24T05:30:52.118Z,93295.61
2019-02-24T05:33:39.848Z,93297.58
2019-02-24T05:36:28.470Z,93301.52
2019-02-24T05:39:17.109Z,93300.49
2019-02-24T05:42:05.486Z,93309.50
2019-02-24T05:44:53.207Z,93309.34
2019-02-24T05:47:42.802Z,93313.13
2019-02-24T05:50:31.251Z,93320.45
2019-02-24T05:53:19.796Z,93321.61
2019-02-24T05:56:08.167Z,93327.25
2019-02-24T05:58:56.514Z,93320.34
2019-02-24T06:01:44.702Z,93314.28
2019-02-24T06:04:32.467Z,93313.48
2019-02-24T06:07:20.152Z,93314.85
2019-02-24T06:10:08.617Z,93313.45
2019-02-24T06:12:56.567Z,93311.55
2019-02-24T06:15:44.389Z,93315.77
2019-02-24T06:18:32.349Z,93312.49
2019-02-24T06:21:20.721Z,93308.24
2019-02-24T06:24:08.715Z,93309.52
2019-02-24T06:26:57.210Z,93304.69
2019-02-24T06:29:45.469Z,93302.05
2019-02-24T06:32:33.810Z,93305.69
2019-02-24T06:35:21.423Z,93303.02
2019-02-24T06:38:09.143Z,93305.91
2019-02-24T06:40:57.325Z,93306.28
2019-02-24T06:43:45.659Z,93308.90
2019-02-24T06:46:34.098Z,93312.59
2019-02-24T06:49:23.070Z,93318.69
2019-02-24T06:52:14.488Z,93305.20
2019-02-24T06:55:03.073Z,93303.05
2019-02-24T06:57:51.415Z,93304.05
2019-02-24T07:00:39.509Z,93305.66
2019-02-24T07:03:27.640Z,93308.13
2019-02-24T07:06:15.663Z,93314.31
2019-02-24T07:09:05.552Z,93314.40
2019-02-24T07:11:54.248Z,93315.77
2019-02-24T07:14:42.012Z,93319.42
2019-02-24T07:17:30.838Z,93317.98
2019-02-24T07:20:19.759Z,93319.95
2019-02-24T07:23:07.405Z,93319.72
2019-02-24T07:25:56.033Z,93322.08
2019-02-24T07:28:44.405Z,93316.43
2019-02-24T07:31:32.092Z,93318.48
2019-02-24T07:34:20.542Z,93325.91
2019-02-24T07:37:13.089Z,93325.88
2019-02-24T07:39:57.991Z,93330.09
2019-02-24T07:42:45.723Z,93322.47
2019-02-24T07:45:33.586Z,93327.32
2019-02-24T07:48:23.221Z,93322.92
2019-02-24T07:51:12.455Z,93323.50
2019-02-24T07:54:00.366Z,93315.83
2019-02-24T07:56:49.145Z,93318.69
2019-02-24T07:59:37.764Z,93318.70
2019-02-24T08:02:26.100Z,93317.30
2019-02-24T08:05:16.888Z,93315.13
2019-02-24T08:08:04.608Z,93327.55
2019-02-24T08:10:52.718Z,93323.77
2019-02-24T08:13:44.319Z,93319.80
2019-02-24T08:16:32.896Z,93319.53
2019-02-24T08:19:20.803Z,93319.78
2019-02-24T08:22:08.563Z,93313.03
2019-02-24T08:24:56.415Z,93311.64
2019-02-24T08:27:44.754Z,93312.22
2019-02-24T08:30:41.217Z,93313.70
2019-02-24T08:33:22.256Z,93317.75
2019-02-24T08:36:10.666Z,93316.73
2019-02-24T08:38:58.740Z,93311.79
2019-02-24T08:41:47.310Z,93312.08
2019-02-24T08:44:35.803Z,93303.98
2019-02-24T08:47:24.230Z,93304.05
2019-02-24T08:50:12.657Z,93310.78
2019-02-24T08:53:02.239Z,93310.33
2019-02-24T08:55:50.847Z,93311.35
2019-02-24T08:58:39.245Z,93306.97
2019-02-24T09:01:27.361Z,93308.00
2019-02-24T09:04:15.455Z,93310.62
2019-02-24T09:07:03.294Z,93311.20
2019-02-24T09:09:50.905Z,93306.24
2019-02-24T09:12:39.054Z,93307.55
2019-02-24T09:15:27.454Z,93317.33
2019-02-24T09:18:16.034Z,93310.09
2019-02-24T09:21:04.339Z,93317.08
2019-02-24T09:23:52.768Z,93320.20
2019-02-24T09:26:40.759Z,93318.80
2019-02-24T09:29:28.395Z,93320.09
2019-02-24T09:32:16.785Z,93317.78
2019-02-24T09:35:05.363Z,93321.28
2019-02-24T09:37:53.331Z,93317.69
2019-02-24T09:40:41.778Z,93320.15
2019-02-24T09:43:30.015Z,93318.03
2019-02-24T09:46:18.403Z,93308.78
2019-02-24T09:49:06.402Z,93314.64
2019-02-24T09:51:54.990Z,93311.13
2019-02-24T09:54:44.410Z,93307.37
2019-02-24T09:57:32.551Z,93304.48
2019-02-24T10:00:21.940Z,93300.55
2019-02-24T10:03:09.513Z,93300.45
2019-02-24T10:05:57.578Z,93296.33
2019-02-24T10:08:45.791Z,93289.00
2019-02-24T10:11:34.132Z,93289.03
2019-02-24T10:14:22.554Z,93285.74
2019-02-24T10:17:10.875Z,93275.47
2019-02-24T10:19:59.091Z,93287.40
2019-02-24T10:22:50.313Z,93286.94
2019-02-24T10:25:38.761Z,93287.91
2019-02-24T10:28:26.462Z,93277.78
2019-02-24T10:31:19.859Z,93274.62
2019-02-24T10:34:04.307Z,93263.66
2019-02-24T10:36:52.530Z,93268.72
2019-02-24T10:39:40.956Z,93270.41
2019-02-24T10:42:29.447Z,93263.20
2019-02-24T10:45:17.239Z,93259.89
2019-02-24T10:48:13.704Z,93255.48
2019-02-24T10:50:54.939Z,93262.07
2019-02-24T10:53:43.427Z,93255.34
2019-02-24T10:56:31.576Z,93247.63
2019-02-24T10:59:19.684Z,93249.36
2019-02-24T11:02:07.671Z,93240.16
2019-02-24T11:04:56.082Z,93239.11
2019-02-24T11:07:44.536Z,93233.88
2019-02-24T11:10:33.032Z,93241.56
2019-02-24T11:13:20.702Z,93233.27
2019-02-24T11:16:08.876Z,93231.14
2019-02-24T11:18:57.149Z,93225.37
2019-02-24T11:21:45.165Z,93223.91
2019-02-24T11:24:33.742Z,93217.18
2019-02-24T11:27:21.431Z,93216.17
2019-02-24T11:30:09.250Z,93215.16
2019-02-24T11:32:57.560Z,93212.09
2019-02-24T11:35:46.124Z,93197.61
2019-02-24T11:38:34.463Z,93196.40
2019-02-24T11:41:22.851Z,93192.73
2019-02-24T11:44:11.010Z,93193.47
2019-02-24T11:46:59.049Z,93186.76
2019-02-24T11:49:47.675Z,93183.98
2019-02-24T11:52:35.747Z,93184.47
2019-02-24T11:55:23.829Z,93176.88
2019-02-24T11:58:12.263Z,93177.41
2019-02-24T12:01:00.474Z,93175.58
2019-02-24T12:03:48.153Z,93167.67
2019-02-24T12:06:36.280Z,93173.24
2019-02-24T12:09:24.659Z,93159.98
2019-02-24T12:12:12.675Z,93155.38
2019-02-24T12:15:00.812Z,93148.66
2019-02-24T12:17:49.311Z,93147.27
2019-02-24T12:20:37.263Z,93156.02
2019-02-24T12:23:25.370Z,93147.14
2019-02-24T12:26:13.708Z,93142.91
2019-02-24T12:29:01.699Z,93145.96
2019-02-24T12:31:56.424Z,93140.34
2019-02-24T12:34:40.343Z,93136.44
2019-02-24T12:37:28.619Z,93135.98
2019-02-24T12:40:16.729Z,93129.81
2019-02-24T12:43:05.317Z,93123.37
2019-02-24T12:45:53.747Z,93115.52
2019-02-24T12:48:42.117Z,93114.00
2019-02-24T12:51:30.658Z,93109.21
2019-02-24T12:54:18.718Z,93106.13
2019-02-24T12:57:06.790Z,93105.70
2019-02-24T12:59:55.200Z,93099.26
2019-02-24T13:02:43.747Z,93097.05
2019-02-24T13:05:32.268Z,93098.40
2019-02-24T13:08:20.849Z,93098.05
2019-02-24T13:11:09.212Z,93084.03
2019-02-24T13:13:57.723Z,93084.42
2019-02-24T13:16:45.814Z,93075.23
2019-02-24T13:19:33.736Z,93081.53
2019-02-24T13:22:21.684Z,93073.39
2019-02-24T13:25:09.971Z,93078.40
2019-02-24T13:27:58.229Z,93070.30
2019-02-24T13:30:46.695Z,93067.72
2019-02-24T13:33:34.780Z,93057.27
2019-02-24T13:36:22.482Z,93066.39
2019-02-24T13:39:10.332Z,93068.88
2019-02-24T13:41:58.919Z,93074.95
2019-02-24T13:44:46.846Z,93068.81
2019-02-24T13:47:35.303Z,93069.93
2019-02-24T13:50:23.980Z,93066.36
2019-02-24T13:53:12.388Z,93071.02
2019-02-24T13:56:00.746Z,93069.52
2019-02-24T13:58:50.537Z,93067.28
2019-02-24T14:01:39.764Z,93070.69
2019-02-24T14:04:28.977Z,93058.56
2019-02-24T14:07:18.663Z,93055.23
2019-02-24T14:10:09.080Z,93053.81
2019-02-24T14:12:59.027Z,93054.43
2019-02-24T14:15:48.303Z,93049.46
2019-02-24T14:18:37.394Z,93045.84
2019-02-24T14:21:26.218Z,93047.45
2019-02-24T14:24:16.385Z,93050.89
2019-02-24T14:27:05.850Z,93050.48
2019-02-24T14:29:55.310Z,93045.22
2019-02-24T14:32:44.999Z,93048.90
2019-02-24T14:35:33.718Z,93049.41
2019-02-24T14:38:23.327Z,93048.17
2019-02-24T14:41:12.550Z,93051.60
2019-02-24T14:44:02.037Z,93053.09
2019-02-24T14:46:52.369Z,93050.50
2019-02-24T14:49:45.560Z,93052.73
2019-02-24T14:52:35.088Z,93057.62
2019-02-24T14:55:24.427Z,93060.20
2019-02-24T14:58:13.437Z,93066.67
2019-02-24T15:01:02.938Z,93059.75
2019-02-24T15:03:51.558Z,93056.30
2019-02-24T15:06:41.137Z,93063.91
2019-02-24T15:09:30.184Z,93065.20
2019-02-24T15:12:19.984Z,93069.25
2019-02-24T15:15:10.915Z,93062.25
2019-02-24T15:18:09.314Z,93075.14
2019-02-24T15:20:58.821Z,93075.47
2019-02-24T15:23:48.135Z,93073.31
2019-02-24T15:26:37.461Z,93076.16
2019-02-24T15:29:26.794Z,93078.33
2019-02-24T15:32:16.500Z,93083.55
2019-02-24T15:35:06.120Z,93085.64
2019-02-24T15:37:55.353Z,93088.80
2019-02-24T15:40:45.154Z,93078.92
2019-02-24T15:43:34.534Z,93086.25
2019-02-24T15:46:24.227Z,93088.72
2019-02-24T15:49:13.429Z,93086.86
2019-02-24T15:52:09.670Z,93079.52
2019-02-24T15:54:54.363Z,93084.17
2019-02-24T15:57:44.184Z,93093.76
2019-02-24T16:00:33.011Z,93098.80
2019-02-24T16:03:23.272Z,93108.57
2019-02-24T16:06:12.679Z,93103.48
2019-02-24T16:09:02.496Z,93108.92
2019-02-24T16:11:51.701Z,93122.27
2019-02-24T16:14:41.407Z,93119.84
2019-02-24T16:17:30.904Z,93124.52
2019-02-24T16:20:22.376Z,93127.50
2019-02-24T16:23:11.754Z,93129.54
2019-02-24T16:26:01.377Z,93130.86
2019-02-24T16:28:50.803Z,93145.55
2019-02-24T16:31:40.087Z,93137.55
2019-02-24T16:34:28.716Z,93148.11
2019-02-24T16:37:18.735Z,93150.19
2019-02-24T16:40:11.045Z,93155.76
2019-02-24T16:43:00.891Z,93160.77
2019-02-24T16:45:50.246Z,93161.47
2019-02-24T16:48:39.980Z,93163.13
2019-02-24T16:51:29.280Z,93166.04
2019-02-24T16:54:19.181Z,93173.41
2019-02-24T16:57:08.522Z,93167.16
2019-02-24T16:59:58.105Z,93174.23
2019-02-24T17:02:47.721Z,93173.38
2019-02-24T17:05:37.985Z,93178.77
2019-02-24T17:08:27.627Z,93180.88
2019-02-24T17:11:17.027Z,93182.03
2019-02-24T17:14:06.656Z,93181.16
2019-02-24T17:17:01.659Z,93186.70
2019-02-24T17:19:46.120Z,93178.41
2019-02-24T17:22:36.024Z,93188.34
2019-02-24T17:25:25.290Z,93189.55
2019-02-24T17:28:14.669Z,93186.47
2019-02-24T17:31:04.173Z,93191.40
2019-02-24T17:33:53.464Z,93190.27
2019-02-24T17:36:42.909Z,93186.03
2019-02-24T17:39:32.013Z,93184.28
2019-02-24T17:42:21.110Z,93185.91
2019-02-24T17:45:12.323Z,93182.73
2019-02-24T17:48:01.861Z,93181.01
2019-02-24T17:50:49.564Z,93184.08
2019-02-24T17:53:38.055Z,93185.84
2019-02-24T17:56:26.714Z,93180.14
2019-02-24T17:59:15.308Z,93174.98
2019-02-24T18:02:02.789Z,93179.95
2019-02-24T18:04:50.760Z,93181.91
2019-02-24T18:07:39.571Z,93174.68
2019-02-24T18:10:27.959Z,93180.05
2019-02-24T18:13:16.499Z,93183.85
2019-02-24T18:16:04.606Z,93191.02
2019-02-24T18:18:52.525Z,93194.39
2019-02-24T18:21:40.927Z,93202.13
2019-02-24T18:24:28.694Z,93199.19
2019-02-24T18:27:16.431Z,93202.74
2019-02-24T18:30:05.904Z,93200.30
2019-02-24T18:32:53.995Z,93203.06
2019-02-24T18:35:42.003Z,93207.56
2019-02-24T18:38:30.506Z,93211.92
2019-02-24T18:41:18.368Z,93212.64
2019-02-24T18:44:06.927Z,93208.72
2019-02-24T18:46:55.440Z,93218.64
2019-02-24T18:49:43.719Z,93214.03
2019-02-24T18:52:31.400Z,93213.14
2019-02-24T18:55:19.949Z,93207.84
2019-02-24T18:58:09.282Z,93212.94
2019-02-24T19:00:57.604Z,93215.87
2019-02-24T19:03:46.074Z,93213.23
2019-02-24T19:06:39.185Z,93214.28
2019-02-24T19:09:23.429Z,93207.91
2019-02-24T19:12:11.646Z,93200.23
2019-02-24T19:15:00.182Z,93204.09
2019-02-24T19:17:48.719Z,93199.36
2019-02-24T19:20:37.155Z,93202.56
2019-02-24T19:23:25.406Z,93205.23
2019-02-24T19:26:13.514Z,93199.38
2019-02-24T19:29:02.034Z,93198.52
2019-02-24T19:31:50.141Z,93202.02
2019-02-24T19:34:38.258Z,93201.43
2019-02-24T19:37:26.381Z,93202.59
2019-02-24T19:40:15.356Z,93212.09
2019-02-24T19:43:03.528Z,93207.88
2019-02-24T19:45:51.929Z,93200.14
2019-02-24T19:48:42.220Z,93207.59
2019-02-24T19:51:29.580Z,93203.80
2019-02-24T19:54:17.346Z,93198.14
2019-02-24T19:57:07.164Z,93198.88
2019-02-24T19:59:55.663Z,93202.23
2019-02-24T20:02:43.539Z,93201.80
2019-02-24T20:05:32.006Z,93203.25
2019-02-24T20:08:23.641Z,93208.21
2019-02-24T20:11:11.737Z,93213.47
2019-02-24T20:14:00.164Z,93206.75
2019-02-24T20:16:48.590Z,93208.06
2019-02-24T20:19:36.571Z,93208.91
2019-02-24T20:22:24.946Z,93202.98
2019-02-24T20:25:13.572Z,93199.33
2019-02-24T20:28:01.559Z,93204.22
2019-02-24T20:30:50.016Z,93196.23
2019-02-24T20:33:39.080Z,93198.88
2019-02-24T20:36:27.278Z,93196.97
2019-02-24T20:39:15.394Z,93200.19
2019-02-24T20:42:03.673Z,93197.55
2019-02-24T20:44:51.805Z,93199.12
2019-02-24T20:47:40.196Z,93190.45
2019-02-24T20:50:28.361Z,93188.58
2019-02-24T20:53:16.600Z,93197.96
2019-02-24T20:56:04.584Z,93193.58
2019-02-24T20:58:52.977Z,93196.47
2019-02-24T21:01:41.102Z,93193.11
2019-02-24T21:04:31.855Z,93194.02
2019-02-24T21:07:20.563Z,93192.52
2019-02-24T21:10:09.103Z,93185.48
2019-02-24T21:12:56.806Z,93184.16
2019-02-24T21:15:44.876Z,93191.90
2019-02-24T21:18:32.751Z,93189.71
2019-02-24T21:21:20.368Z,93189.86
2019-02-24T21:24:08.842Z,93189.71
2019-02-24T21:26:56.808Z,93194.39
2019-02-24T21:29:45.215Z,93198.20
2019-02-24T21:32:35.306Z,93192.91
2019-02-24T21:35:23.821Z,93192.63
2019-02-24T21:38:12.222Z,93196.53
2019-02-24T21:41:00.934Z,93189.70
2019-02-24T21:43:49.042Z,93187.25
2019-02-24T21:46:37.310Z,93193.51
2019-02-24T21:49:25.685Z,93190.75
2019-02-24T21:52:14.255Z,93184.05
2019-02-24T21:55:01.694Z,93193.11
2019-02-24T21:57:50.407Z,93193.95
2019-02-24T22:00:40.988Z,93195.70
2019-02-24T22:03:29.407Z,93194.95
2019-02-24T22:06:17.783Z,93193.80
2019-02-24T22:09:08.179Z,93192.92
2019-02-24T22:11:58.069Z,93191.77
2019-02-24T22:14:51.024Z,93200.97
2019-02-24T22:17:39.384Z,93202.00
2019-02-24T22:20:27.855Z,93205.35
2019-02-24T22:23:15.527Z,93210.31
2019-02-24T22:26:03.467Z,93208.80
2019-02-24T22:28:50.971Z,93200.79
2019-02-24T22:31:38.876Z,93213.62
2019-02-24T22:34:27.227Z,93216.66
2019-02-24T22:37:15.311Z,93210.40
2019-02-24T22:40:03.652Z,93214.12
2019-02-24T22:42:52.110Z,93213.86
2019-02-24T22:45:40.406Z,93210.33
2019-02-24T22:48:28.676Z,93205.67
2019-02-24T22:51:16.731Z,93207.23
2019-02-24T22:54:04.932Z,93202.15
2019-02-24T22:56:52.946Z,93199.07
2019-02-24T22:59:40.929Z,93205.13
2019-02-24T23:02:28.723Z,93211.11
2019-02-24T23:05:17.499Z,93207.20
2019-02-24T23:08:05.898Z,93211.91
2019-02-24T23:10:54.438Z,93203.04
2019-02-24T23:13:42.258Z,93196.48
2019-02-24T23:16:31.423Z,93197.34
2019-02-24T23:19:19.915Z,93198.25
2019-02-24T23:22:08.055Z,93199.70
2019-02-24T23:24:55.984Z,93199.23
2019-02-24T23:27:44.443Z,93200.42
2019-02-24T23:30:33.115Z,93196.89
2019-02-24T23:33:21.282Z,93198.32
2019-02-24T23:36:08.951Z,93199.19
2019-02-24T23:38:57.054Z,93201.95
2019-02-24T23:41:46.079Z,93206.22
2019-02-24T23:44:33.828Z,93197.04
2019-02-24T23:47:22.152Z,93192.83
2019-02-24T23:50:10.251Z,93191.52
2019-02-24T23:52:58.667Z,93193.13
2019-02-24T23:55:47.342Z,93199.81
2019-02-24T23:58:35.431Z,93200.49
